Check out our new BloomSky Weather System.

Active alerts

Houston, TX
  Details for Houston, TX Dense Fog Advisory


Thunder radar  blitzortung!


Rain radar more information rain snow radar


Visit our other weather sites:

Template documentation
and downloads

And another site



Weather Underground History page Text

Daily Summary for May 1, 2017 Units:  Metric    English   Both
« Previous Day
Next Day »
Daily Weekly Monthly Yearly Custom
  High: Low: Average:
Temperature: 31.1 °C 9.7 °C 21.5 °C
Dew Point: 15.1 °C 8.6 °C 11.9 °C
Humidity: 94 % 32 % 59 %
Wind Speed: 20.9 km/h 0 km/h 4.7 km/h
Wind Gust: 25.7 km/h - -
Wind:- - South
Pressure: 1016.1 hPa 1011.7 hPa -
Precipitation: 0 mm    
Historical Graphs
 
 
Tabular Data for May 1, 2017
Time Temperature Dew Point Pressure Wind Wind Speed Wind Gust Humidity Rainfall Rate (Hourly)
00:01 13.4 °C 9.6 °C 1014.1 hPa Calm     78 % 0 mm
00:06 13.4 °C 9.8 °C 1014.1 hPa Calm     79 % 0 mm
00:11 13.3 °C 9.7 °C 1014.1 hPa Calm     79 % 0 mm
00:16 13.2 °C 9.8 °C 1014.4 hPa Calm     80 % 0 mm
00:21 13.3 °C 9.9 °C 1014.4 hPa Calm     80 % 0 mm
00:26 13.3 °C 9.9 °C 1014.4 hPa Calm     80 % 0 mm
00:31 13.2 °C 10 °C 1014.4 hPa Calm     81 % 0 mm
00:36 13.2 °C 10 °C 1014.4 hPa Calm     81 % 0 mm
00:41 13.5 °C 10.5 °C 1014.4 hPa Calm   1.6 km/h 82 % 0 mm
00:46 13.6 °C 10.4 °C 1014.4 hPa Calm   1.6 km/h 81 % 0 mm
00:51 13.4 °C 10 °C 1014.4 hPa Calm   1.6 km/h 80 % 0 mm
00:56 13.2 °C 9.8 °C 1014.1 hPa Calm     80 % 0 mm
01:01 12.9 °C 9.7 °C 1014.4 hPa Calm     81 % 0 mm
01:06 12.8 °C 9.8 °C 1014.1 hPa Calm     82 % 0 mm
01:11 12.7 °C 9.9 °C 1014.1 hPa Calm     83 % 0 mm
01:16 12.8 °C 10 °C 1014.4 hPa Calm     83 % 0 mm
01:21 12.8 °C 10 °C 1014.4 hPa Calm     83 % 0 mm
01:26 12.9 °C 10.1 °C 1014.1 hPa Calm     83 % 0 mm
01:31 13 °C 10 °C 1014.4 hPa Calm     82 % 0 mm
01:36 12.9 °C 9.7 °C 1014.1 hPa Calm     81 % 0 mm
01:41 12.8 °C 9.8 °C 1014.1 hPa Calm     82 % 0 mm
01:46 12.8 °C 10 °C 1014.1 hPa Calm     83 % 0 mm
01:51 12.7 °C 9.9 °C 1014.4 hPa Calm     83 % 0 mm
01:56 12.7 °C 9.9 °C 1014.1 hPa Calm     83 % 0 mm
02:01 12.7 °C 10.1 °C 1014.1 hPa Calm     84 % 0 mm
02:06 12.6 °C 10 °C 1014.1 hPa Calm     84 % 0 mm
02:12 12.4 °C 9.8 °C 1014.1 hPa Calm     84 % 0 mm
02:17 12.2 °C 9.8 °C 1014.1 hPa Calm     85 % 0 mm
02:22 12 °C 9.4 °C 1014.1 hPa Calm     84 % 0 mm
02:27 11.9 °C 9.6 °C 1013.8 hPa Calm     86 % 0 mm
02:32 11.9 °C 9.8 °C 1013.8 hPa Calm     87 % 0 mm
02:37 11.9 °C 9.6 °C 1013.8 hPa Calm     86 % 0 mm
02:42 11.8 °C 9.7 °C 1014.1 hPa Calm     87 % 0 mm
02:47 11.9 °C 10 °C 1014.1 hPa Calm     88 % 0 mm
02:52 11.8 °C 9.7 °C 1013.8 hPa Calm     87 % 0 mm
02:57 11.6 °C 9.5 °C 1014.1 hPa Calm     87 % 0 mm
03:02 11.6 °C 9.8 °C 1013.8 hPa Calm     89 % 0 mm
03:07 11.7 °C 9.9 °C 1013.8 hPa Calm     89 % 0 mm
03:12 11.6 °C 9.7 °C 1013.8 hPa Calm     88 % 0 mm
03:17 11.3 °C 9.4 °C 1013.8 hPa Calm     88 % 0 mm
03:22 11.2 °C 9.3 °C 1013.8 hPa Calm     88 % 0 mm
03:27 11 °C 9.1 °C 1013.8 hPa Calm     88 % 0 mm
03:32 11.1 °C 9.4 °C 1013.8 hPa Calm     89 % 0 mm
03:37 11.1 °C 9.5 °C 1013.8 hPa Calm     90 % 0 mm
03:42 11.2 °C 9.6 °C 1014.1 hPa Calm     90 % 0 mm
03:47 11.1 °C 9.4 °C 1013.8 hPa Calm     89 % 0 mm
03:52 10.9 °C 9.3 °C 1013.8 hPa Calm     90 % 0 mm
03:57 11 °C 9.4 °C 1013.8 hPa Calm     90 % 0 mm
04:02 10.8 °C 9.1 °C 1013.8 hPa Calm     89 % 0 mm
04:07 10.8 °C 9.2 °C 1013.8 hPa Calm     90 % 0 mm
04:12 10.7 °C 9.1 °C 1013.8 hPa Calm     90 % 0 mm
04:17 10.7 °C 9.3 °C 1013.8 hPa Calm     91 % 0 mm
04:22 10.8 °C 9.4 °C 1013.8 hPa Calm   1.6 km/h 91 % 0 mm
04:27 10.8 °C 9.4 °C 1013.8 hPa Calm   1.6 km/h 91 % 0 mm
04:32 10.8 °C 9.6 °C 1013.8 hPa Calm   1.6 km/h 92 % 0 mm
04:37 10.8 °C 9.4 °C 1013.8 hPa Calm     91 % 0 mm
04:42 10.7 °C 9.3 °C 1013.8 hPa Calm     91 % 0 mm
04:47 10.6 °C 9.2 °C 1013.8 hPa Calm     91 % 0 mm
04:52 10.5 °C 9.1 °C 1013.4 hPa Calm     91 % 0 mm
04:57 10.5 °C 9.3 °C 1013.8 hPa Calm     92 % 0 mm
05:02 10.7 °C 9.5 °C 1013.8 hPa Calm     92 % 0 mm
05:07 10.7 °C 9.5 °C 1013.4 hPa Calm     92 % 0 mm
05:12 10.7 °C 9.5 °C 1013.4 hPa Calm     92 % 0 mm
05:17 10.7 °C 9.5 °C 1013.4 hPa Calm     92 % 0 mm
05:22 10.5 °C 9.1 °C 1013.4 hPa Calm     91 % 0 mm
05:27 10.4 °C 9.2 °C 1013.8 hPa Calm     92 % 0 mm
05:32 10.3 °C 9.1 °C 1013.4 hPa Calm     92 % 0 mm
05:37 10.3 °C 9.1 °C 1013.8 hPa Calm     92 % 0 mm
05:42 10.2 °C 9 °C 1013.8 hPa Calm     92 % 0 mm
05:47 10.2 °C 9 °C 1013.8 hPa Calm     92 % 0 mm
05:52 10.1 °C 8.9 °C 1013.8 hPa Calm     92 % 0 mm
05:57 10.1 °C 8.9 °C 1013.8 hPa Calm     92 % 0 mm
06:02 10 °C 8.8 °C 1013.8 hPa Calm     92 % 0 mm
06:07 9.9 °C 8.7 °C 1013.8 hPa Calm     92 % 0 mm
06:12 9.8 °C 8.6 °C 1014.1 hPa Calm     92 % 0 mm
06:17 9.7 °C 8.6 °C 1013.8 hPa Calm     93 % 0 mm
06:22 9.7 °C 8.6 °C 1013.8 hPa Calm     93 % 0 mm
06:27 9.8 °C 8.9 °C 1014.1 hPa Calm     94 % 0 mm
06:32 9.9 °C 9 °C 1014.1 hPa Calm     94 % 0 mm
06:37 10.1 °C 9.2 °C 1014.1 hPa Calm     94 % 0 mm
06:42 10.2 °C 9.3 °C 1014.1 hPa Calm     94 % 0 mm
06:47 10.2 °C 9.3 °C 1014.1 hPa Calm     94 % 0 mm
06:52 10.3 °C 9.4 °C 1014.1 hPa Calm     94 % 0 mm
06:57 10.6 °C 9.5 °C 1014.4 hPa Calm   1.6 km/h 93 % 0 mm
07:02 10.8 °C 9.6 °C 1014.4 hPa Calm   1.6 km/h 92 % 0 mm
07:07 11 °C 9.8 °C 1014.4 hPa Calm   1.6 km/h 92 % 0 mm
07:12 11.3 °C 9.9 °C 1014.4 hPa Calm   1.6 km/h 91 % 0 mm
07:17 11.6 °C 10 °C 1014.4 hPa Calm   1.6 km/h 90 % 0 mm
07:22 12.1 °C 10.2 °C 1014.4 hPa Calm   6.4 km/h 88 % 0 mm
07:27 12.7 °C 10.8 °C 1014.4 hPa South 1.6 km/h 6.4 km/h 88 % 0 mm
07:32 13.4 °C 11.1 °C 1014.8 hPa Calm   6.4 km/h 86 % 0 mm
07:34 13.7 °C 11.4 °C 1014.8 hPa Calm   6.4 km/h 86 % 0 mm
07:39 14.3 °C 11.5 °C 1014.8 hPa South 1.6 km/h 3.2 km/h 83 % 0 mm
07:44 14.9 °C 11.7 °C 1015.1 hPa South 6.4 km/h 6.4 km/h 81 % 0 mm
07:49 15.4 °C 11.8 °C 1014.8 hPa SSW 3.2 km/h 8 km/h 79 % 0 mm
07:54 15.8 °C 12 °C 1015.1 hPa SSW 1.6 km/h 9.7 km/h 78 % 0 mm
07:59 16.3 °C 12.3 °C 1015.1 hPa South 1.6 km/h 9.7 km/h 77 % 0 mm
08:04 16.8 °C 12.7 °C 1015.1 hPa South 3.2 km/h 9.7 km/h 77 % 0 mm
08:09 17.2 °C 12.7 °C 1015.1 hPa SW 9.7 km/h 9.7 km/h 75 % 0 mm
08:14 17.5 °C 12.8 °C 1015.1 hPa South 8 km/h 9.7 km/h 74 % 0 mm
08:19 17.9 °C 13.2 °C 1015.5 hPa SW 3.2 km/h 9.7 km/h 74 % 0 mm
08:24 18.3 °C 13.4 °C 1015.5 hPa SSW 1.6 km/h 11.3 km/h 73 % 0 mm
08:29 18.8 °C 13.9 °C 1015.5 hPa SSW 4.8 km/h 11.3 km/h 73 % 0 mm
08:34 19.2 °C 13.8 °C 1015.5 hPa South 8 km/h 11.3 km/h 71 % 0 mm
08:39 19.6 °C 14 °C 1015.5 hPa SE 3.2 km/h 11.3 km/h 70 % 0 mm
08:44 20.1 °C 14.5 °C 1015.5 hPa SW 3.2 km/h 9.7 km/h 70 % 0 mm
08:49 20.5 °C 14.4 °C 1015.5 hPa SSE 3.2 km/h 9.7 km/h 68 % 0 mm
08:54 20.8 °C 14.2 °C 1015.5 hPa South 4.8 km/h 9.7 km/h 66 % 0 mm
08:59 21.1 °C 14.3 °C 1015.5 hPa South 6.4 km/h 12.9 km/h 65 % 0 mm
09:04 21.4 °C 14.3 °C 1015.8 hPa South 1.6 km/h 12.9 km/h 64 % 0 mm
09:09 21.6 °C 14.3 °C 1015.8 hPa SSE 1.6 km/h 12.9 km/h 63 % 0 mm
09:14 22.1 °C 15 °C 1015.8 hPa South 11.3 km/h 19.3 km/h 64 % 0 mm
09:19 22.2 °C 14.3 °C 1015.8 hPa SW 11.3 km/h 19.3 km/h 61 % 0 mm
09:24 22.5 °C 15.1 °C 1015.8 hPa SSW 8 km/h 19.3 km/h 63 % 0 mm
09:29 22.8 °C 14.9 °C 1016.1 hPa NW 1.6 km/h 12.9 km/h 61 % 0 mm
09:34 23.1 °C 14.9 °C 1016.1 hPa West 1.6 km/h 16.1 km/h 60 % 0 mm
09:39 23.3 °C 14.6 °C 1016.1 hPa WSW 4.8 km/h 16.1 km/h 58 % 0 mm
09:44 23.4 °C 14.7 °C 1016.1 hPa WSW 3.2 km/h 17.7 km/h 58 % 0 mm
09:49 23.6 °C 14.9 °C 1016.1 hPa SSW 6.4 km/h 17.7 km/h 58 % 0 mm
09:54 23.7 °C 14.4 °C 1016.1 hPa SSE 8 km/h 17.7 km/h 56 % 0 mm
09:59 23.8 °C 15 °C 1016.1 hPa WSW 4.8 km/h 14.5 km/h 58 % 0 mm
10:04 24.1 °C 14.5 °C 1016.1 hPa SSW 9.7 km/h 14.5 km/h 55 % 0 mm
10:09 24.1 °C 14.8 °C 1016.1 hPa NNE 1.6 km/h 14.5 km/h 56 % 0 mm
10:14 24.4 °C 15.1 °C 1016.1 hPa South 11.3 km/h 14.5 km/h 56 % 0 mm
10:19 24.9 °C 14.7 °C 1016.1 hPa South 3.2 km/h 14.5 km/h 53 % 0 mm
10:24 25.1 °C 15.1 °C 1016.1 hPa WSW 4.8 km/h 12.9 km/h 54 % 0 mm
10:29 25.2 °C 14 °C 1016.1 hPa SSW 6.4 km/h 17.7 km/h 50 % 0 mm
10:34 25.1 °C 14.6 °C 1016.1 hPa South 9.7 km/h 19.3 km/h 52 % 0 mm
10:40 25.4 °C 14.8 °C 1016.1 hPa SSW 1.6 km/h 19.3 km/h 52 % 0 mm
10:45 25.8 °C 14.6 °C 1016.1 hPa SW 4.8 km/h 19.3 km/h 50 % 0 mm
10:50 25.7 °C 13.9 °C 1016.1 hPa SSW 3.2 km/h 14.5 km/h 48 % 0 mm
10:55 25.7 °C 14.8 °C 1016.1 hPa SSW 3.2 km/h 19.3 km/h 51 % 0 mm
11:00 26.1 °C 14.9 °C 1016.1 hPa SSE 3.2 km/h 19.3 km/h 50 % 0 mm
11:05 26.1 °C 13.2 °C 1016.1 hPa SW 14.5 km/h 19.3 km/h 45 % 0 mm
11:10 26.1 °C 14.2 °C 1016.1 hPa SW 3.2 km/h 17.7 km/h 48 % 0 mm
11:15 26.4 °C 14.8 °C 1016.1 hPa NW 4.8 km/h 17.7 km/h 49 % 0 mm
11:20 26.3 °C 14.1 °C 1016.1 hPa SSW 4.8 km/h 17.7 km/h 47 % 0 mm
11:25 26.6 °C 14 °C 1016.1 hPa West 3.2 km/h 16.1 km/h 46 % 0 mm
11:30 26.8 °C 13.5 °C 1016.1 hPa SE 1.6 km/h 14.5 km/h 44 % 0 mm
11:35 26.9 °C 13.6 °C 1016.1 hPa WNW 3.2 km/h 14.5 km/h 44 % 0 mm
11:40 27.2 °C 13.5 °C 1016.1 hPa WSW 8 km/h 17.7 km/h 43 % 0 mm
11:45 27.6 °C 14.2 °C 1016.1 hPa South 14.5 km/h 17.7 km/h 44 % 0 mm
11:50 27.3 °C 13.3 °C 1016.1 hPa SW 3.2 km/h 17.7 km/h 42 % 0 mm
11:55 27.1 °C 13.1 °C 1016.1 hPa WSW 8 km/h 22.5 km/h 42 % 0 mm
12:00 27 °C 13 °C 1015.8 hPa SSE 8 km/h 22.5 km/h 42 % 0 mm
12:05 27.1 °C 13.1 °C 1015.8 hPa WSW 4.8 km/h 22.5 km/h 42 % 0 mm
12:10 27.2 °C 13.2 °C 1015.8 hPa SSE 9.7 km/h 20.9 km/h 42 % 0 mm
12:15 27.3 °C 13.6 °C 1015.8 hPa NW 3.2 km/h 20.9 km/h 43 % 0 mm
12:20 27.8 °C 13.3 °C 1015.8 hPa South 9.7 km/h 16.1 km/h 41 % 0 mm
12:25 28 °C 13.1 °C 1015.5 hPa SSW 11.3 km/h 16.1 km/h 40 % 0 mm
12:30 27.8 °C 12.6 °C 1015.5 hPa WSW 9.7 km/h 17.7 km/h 39 % 0 mm
12:35 27.8 °C 13 °C 1015.5 hPa SE 14.5 km/h 19.3 km/h 40 % 0 mm
12:40 27.8 °C 12.6 °C 1015.5 hPa SSW 4.8 km/h 19.3 km/h 39 % 0 mm
12:45 28 °C 12.8 °C 1015.5 hPa SSE 16.1 km/h 22.5 km/h 39 % 0 mm
12:50 27.8 °C 12.2 °C 1015.1 hPa SSW 6.4 km/h 22.5 km/h 38 % 0 mm
12:55 28.2 °C 13.3 °C 1015.1 hPa SSW 6.4 km/h 22.5 km/h 40 % 0 mm
12:56 28.3 °C 13 °C 1015.1 hPa SW 16.1 km/h 22.5 km/h 39 % 0 mm
13:01 28.4 °C 12.7 °C 1015.1 hPa SSE 9.7 km/h 19.3 km/h 38 % 0 mm
13:06 28.6 °C 12.9 °C 1015.1 hPa SE 3.2 km/h 19.3 km/h 38 % 0 mm
13:11 28.7 °C 12.6 °C 1015.1 hPa SSW 4.8 km/h 20.9 km/h 37 % 0 mm
13:16 28.7 °C 13 °C 1014.8 hPa South 9.7 km/h 20.9 km/h 38 % 0 mm
13:21 29.1 °C 13.3 °C 1014.8 hPa SW 8 km/h 20.9 km/h 38 % 0 mm
13:26 29.2 °C 12.2 °C 1014.8 hPa SW 9.7 km/h 17.7 km/h 35 % 0 mm
13:31 29.1 °C 13.3 °C 1014.8 hPa South 8 km/h 17.7 km/h 38 % 0 mm
13:36 29.1 °C 12.1 °C 1014.8 hPa SSW 9.7 km/h 19.3 km/h 35 % 0 mm
13:41 29.1 °C 13.3 °C 1014.8 hPa SSE 11.3 km/h 19.3 km/h 38 % 0 mm
13:46 29.3 °C 13.5 °C 1014.8 hPa SW 8 km/h 19.3 km/h 38 % 0 mm
13:51 29.3 °C 12.3 °C 1014.4 hPa SSW 3.2 km/h 19.3 km/h 35 % 0 mm
13:56 29.3 °C 12.3 °C 1014.4 hPa SSE 8 km/h 19.3 km/h 35 % 0 mm
14:01 29.3 °C 13.1 °C 1014.4 hPa WSW 1.6 km/h 20.9 km/h 37 % 0 mm
14:06 29.5 °C 12 °C 1014.4 hPa SE 11.3 km/h 20.9 km/h 34 % 0 mm
14:11 29.3 °C 13.1 °C 1014.4 hPa South 4.8 km/h 22.5 km/h 37 % 0 mm
14:16 29.6 °C 14.2 °C 1014.1 hPa SSW 1.6 km/h 22.5 km/h 39 % 0 mm
14:21 30 °C 14.1 °C 1014.1 hPa SW 8 km/h 22.5 km/h 38 % 0 mm
14:26 30 °C 12.9 °C 1014.1 hPa South 8 km/h 14.5 km/h 35 % 0 mm
14:31 29.9 °C 13.6 °C 1014.1 hPa SSE 12.9 km/h 17.7 km/h 37 % 0 mm
14:36 29.9 °C 13.6 °C 1013.8 hPa SW 3.2 km/h 17.7 km/h 37 % 0 mm
14:41 30.1 °C 13 °C 1013.8 hPa SSE 6.4 km/h 17.7 km/h 35 % 0 mm
14:46 30.1 °C 13.4 °C 1013.8 hPa South 4.8 km/h 17.7 km/h 36 % 0 mm
14:51 30.2 °C 13 °C 1013.8 hPa SE 9.7 km/h 17.7 km/h 35 % 0 mm
14:56 30 °C 13.3 °C 1013.8 hPa SW 8 km/h 19.3 km/h 36 % 0 mm
15:01 29.8 °C 12.7 °C 1013.8 hPa East 11.3 km/h 19.3 km/h 35 % 0 mm
15:06 29.9 °C 13.2 °C 1013.4 hPa SSE 8 km/h 19.3 km/h 36 % 0 mm
15:11 30.2 °C 13.9 °C 1013.4 hPa SSW 16.1 km/h 19.3 km/h 37 % 0 mm
15:16 30.3 °C 14 °C 1013.4 hPa SW 8 km/h 19.3 km/h 37 % 0 mm
15:21 30.3 °C 14 °C 1013.1 hPa SSW 8 km/h 20.9 km/h 37 % 0 mm
15:26 30.3 °C 14.8 °C 1013.4 hPa SE 4.8 km/h 20.9 km/h 39 % 0 mm
15:31 30.5 °C 13.7 °C 1013.4 hPa SSE 4.8 km/h 20.9 km/h 36 % 0 mm
15:36 30.6 °C 12.9 °C 1013.1 hPa South 11.3 km/h 19.3 km/h 34 % 0 mm
15:41 30.4 °C 12.8 °C 1013.1 hPa SE 9.7 km/h 19.3 km/h 34 % 0 mm
15:46 30.4 °C 13.2 °C 1012.8 hPa SE 9.7 km/h 17.7 km/h 35 % 0 mm
15:51 30.4 °C 13.7 °C 1012.8 hPa SSE 3.2 km/h 20.9 km/h 36 % 0 mm
15:56 30.5 °C 13.3 °C 1012.8 hPa WSW 4.8 km/h 20.9 km/h 35 % 0 mm
16:01 30.7 °C 13 °C 1012.8 hPa SSW 14.5 km/h 20.9 km/h 34 % 0 mm
16:06 30.6 °C 12.5 °C 1012.8 hPa SSW 8 km/h 19.3 km/h 33 % 0 mm
16:11 30.7 °C 12.6 °C 1012.4 hPa SSW 8 km/h 19.3 km/h 33 % 0 mm
16:17 30.7 °C 12.1 °C 1012.4 hPa SSW 9.7 km/h 19.3 km/h 32 % 0 mm
16:22 30.6 °C 12.5 °C 1012.4 hPa SW 4.8 km/h 20.9 km/h 33 % 0 mm
16:27 30.6 °C 12.5 °C 1012.4 hPa SSE 8 km/h 20.9 km/h 33 % 0 mm
16:32 30.8 °C 13.6 °C 1012.4 hPa South 12.9 km/h 20.9 km/h 35 % 0 mm
16:37 30.9 °C 12.8 °C 1012.4 hPa ESE 16.1 km/h 16.1 km/h 33 % 0 mm
16:42 30.8 °C 12.7 °C 1012.4 hPa South 11.3 km/h 19.3 km/h 33 % 0 mm
16:47 30.6 °C 12.5 °C 1012.1 hPa SW 4.8 km/h 19.3 km/h 33 % 0 mm
16:52 30.7 °C 13 °C 1012.1 hPa WNW 16.1 km/h 22.5 km/h 34 % 0 mm
16:57 30.7 °C 13.5 °C 1012.1 hPa SSW 8 km/h 22.5 km/h 35 % 0 mm
17:02 30.8 °C 13.6 °C 1012.1 hPa West 3.2 km/h 22.5 km/h 35 % 0 mm
17:07 30.9 °C 13.2 °C 1012.1 hPa SW 3.2 km/h 20.9 km/h 34 % 0 mm
17:12 30.9 °C 13.7 °C 1012.1 hPa South 6.4 km/h 17.7 km/h 35 % 0 mm
17:17 31.1 °C 13.4 °C 1011.7 hPa SSW 6.4 km/h 17.7 km/h 34 % 0 mm
17:22 31.1 °C 12.5 °C 1012.1 hPa West 6.4 km/h 16.1 km/h 32 % 0 mm
17:27 30.8 °C 12.7 °C 1012.1 hPa South 8 km/h 19.3 km/h 33 % 0 mm
17:32 30.6 °C 12 °C 1011.7 hPa SW 9.7 km/h 19.3 km/h 32 % 0 mm
17:37 30.7 °C 13 °C 1011.7 hPa WSW 9.7 km/h 19.3 km/h 34 % 0 mm
17:42 30.8 °C 12.7 °C 1011.7 hPa South 3.2 km/h 17.7 km/h 33 % 0 mm
17:47 30.9 °C 13.2 °C 1011.7 hPa Calm   12.9 km/h 34 % 0 mm
17:52 30.9 °C 12.8 °C 1011.7 hPa SW 11.3 km/h 14.5 km/h 33 % 0 mm
17:57 30.7 °C 12.6 °C 1011.7 hPa SSW 3.2 km/h 16.1 km/h 33 % 0 mm
18:02 30.8 °C 13.1 °C 1011.7 hPa West 1.6 km/h 16.1 km/h 34 % 0 mm
18:07 30.8 °C 12.7 °C 1011.7 hPa SSW 8 km/h 16.1 km/h 33 % 0 mm
18:12 30.6 °C 12.5 °C 1011.7 hPa SW 20.9 km/h 20.9 km/h 33 % 0 mm
18:17 30.4 °C 12.3 °C 1011.7 hPa SSW 8 km/h 24.1 km/h 33 % 0 mm
18:22 30.3 °C 13.1 °C 1011.7 hPa South 3.2 km/h 24.1 km/h 35 % 0 mm
18:27 30.3 °C 13.1 °C 1011.7 hPa ESE 8 km/h 24.1 km/h 35 % 0 mm
18:32 30.1 °C 13.4 °C 1011.7 hPa SSW 4.8 km/h 17.7 km/h 36 % 0 mm
18:36 30.1 °C 13.8 °C 1011.7 hPa SW 4.8 km/h 14.5 km/h 37 % 0 mm
18:41 30.1 °C 13.4 °C 1011.7 hPa South 6.4 km/h 14.5 km/h 36 % 0 mm
18:46 30.1 °C 13.4 °C 1011.7 hPa South 9.7 km/h 14.5 km/h 36 % 0 mm
18:51 29.9 °C 13.6 °C 1011.7 hPa SSE 1.6 km/h 14.5 km/h 37 % 0 mm
18:52 29.9 °C 13.6 °C 1011.7 hPa SSE 4.8 km/h 14.5 km/h 37 % 0 mm
18:57 29.8 °C 13.5 °C 1011.7 hPa SSE 6.4 km/h 14.5 km/h 37 % 0 mm
19:02 29.7 °C 13.5 °C 1011.7 hPa South 17.7 km/h 17.7 km/h 37 % 0 mm
19:07 29.2 °C 13.4 °C 1011.7 hPa SE 14.5 km/h 22.5 km/h 38 % 0 mm
19:12 28.7 °C 13 °C 1011.7 hPa SSE 11.3 km/h 24.1 km/h 38 % 0 mm
19:17 28.3 °C 13.4 °C 1011.7 hPa South 6.4 km/h 25.7 km/h 40 % 0 mm
19:22 28 °C 13.1 °C 1011.7 hPa South 8 km/h 25.7 km/h 40 % 0 mm
19:27 27.7 °C 12.9 °C 1011.7 hPa ESE 8 km/h 25.7 km/h 40 % 0 mm
19:32 27.5 °C 12.3 °C 1011.7 hPa SE 12.9 km/h 20.9 km/h 39 % 0 mm
19:37 27.3 °C 12.1 °C 1012.1 hPa SE 14.5 km/h 22.5 km/h 39 % 0 mm
19:42 27.1 °C 12 °C 1012.1 hPa SSE 6.4 km/h 22.5 km/h 39 % 0 mm
19:47 26.8 °C 11.3 °C 1012.1 hPa South 11.3 km/h 22.5 km/h 38 % 0 mm
19:52 26.6 °C 11.1 °C 1012.1 hPa SE 12.9 km/h 20.9 km/h 38 % 0 mm
19:57 26.4 °C 11.3 °C 1012.1 hPa South 6.4 km/h 20.9 km/h 39 % 0 mm
20:02 26.2 °C 11.2 °C 1012.1 hPa SSE 12.9 km/h 20.9 km/h 39 % 0 mm
20:07 26.1 °C 11.4 °C 1012.4 hPa SSW 9.7 km/h 20.9 km/h 40 % 0 mm
20:12 25.8 °C 11.2 °C 1012.4 hPa SSE 11.3 km/h 20.9 km/h 40 % 0 mm
20:17 25.7 °C 11.1 °C 1012.4 hPa SE 11.3 km/h 20.9 km/h 40 % 0 mm
20:22 25.6 °C 11.4 °C 1012.4 hPa SE 11.3 km/h 14.5 km/h 41 % 0 mm
20:27 25.4 °C 11.2 °C 1012.4 hPa SSE 4.8 km/h 14.5 km/h 41 % 0 mm
20:32 25.2 °C 11.4 °C 1012.8 hPa ESE 6.4 km/h 16.1 km/h 42 % 0 mm
20:37 25.1 °C 11.3 °C 1012.8 hPa ESE 8 km/h 16.1 km/h 42 % 0 mm
20:42 24.9 °C 11.5 °C 1012.8 hPa ESE 12.9 km/h 16.1 km/h 43 % 0 mm
20:47 24.7 °C 11.6 °C 1012.8 hPa SSE 6.4 km/h 12.9 km/h 44 % 0 mm
20:52 24.6 °C 11.2 °C 1013.1 hPa SSE 8 km/h 12.9 km/h 43 % 0 mm
20:57 24.6 °C 11.5 °C 1013.1 hPa SE 6.4 km/h 14.5 km/h 44 % 0 mm
21:02 24.4 °C 11.4 °C 1013.1 hPa South 11.3 km/h 14.5 km/h 44 % 0 mm
21:07 24.3 °C 11.3 °C 1013.1 hPa SSE 9.7 km/h 14.5 km/h 44 % 0 mm
21:12 24.2 °C 11.5 °C 1013.1 hPa SE 8 km/h 14.5 km/h 45 % 0 mm
21:17 24.1 °C 11.4 °C 1013.4 hPa SSE 4.8 km/h 12.9 km/h 45 % 0 mm
21:22 23.9 °C 11.2 °C 1013.4 hPa SSE 6.4 km/h 11.3 km/h 45 % 0 mm
21:27 23.7 °C 11.4 °C 1013.4 hPa SSE 4.8 km/h 11.3 km/h 46 % 0 mm
21:33 23.5 °C 11.2 °C 1013.4 hPa ESE 4.8 km/h 9.7 km/h 46 % 0 mm
21:38 23.3 °C 11 °C 1013.4 hPa SE 4.8 km/h 11.3 km/h 46 % 0 mm
21:43 23.3 °C 11.4 °C 1013.4 hPa South 6.4 km/h 11.3 km/h 47 % 0 mm
21:48 23.1 °C 11.2 °C 1013.8 hPa South 6.4 km/h 11.3 km/h 47 % 0 mm
21:53 23.1 °C 11.2 °C 1013.8 hPa SSE 4.8 km/h 11.3 km/h 47 % 0 mm
21:58 22.9 °C 11.3 °C 1013.8 hPa South 8 km/h 11.3 km/h 48 % 0 mm
22:03 22.9 °C 11.3 °C 1013.8 hPa SSE 6.4 km/h 11.3 km/h 48 % 0 mm
22:08 22.9 °C 11.3 °C 1013.8 hPa South 4.8 km/h 14.5 km/h 48 % 0 mm
22:13 22.7 °C 11.4 °C 1013.8 hPa South 6.4 km/h 14.5 km/h 49 % 0 mm
22:18 22.6 °C 11.3 °C 1014.1 hPa SE 6.4 km/h 14.5 km/h 49 % 0 mm
22:23 22.4 °C 11.5 °C 1014.1 hPa South 6.4 km/h 14.5 km/h 50 % 0 mm
22:28 22.3 °C 11.7 °C 1014.1 hPa SSE 4.8 km/h 12.9 km/h 51 % 0 mm
22:33 22.2 °C 11.6 °C 1014.1 hPa SSE 4.8 km/h 12.9 km/h 51 % 0 mm
22:38 22.1 °C 11.8 °C 1014.1 hPa South 3.2 km/h 9.7 km/h 52 % 0 mm
22:43 22 °C 12 °C 1014.1 hPa SE 3.2 km/h 9.7 km/h 53 % 0 mm
22:48 21.8 °C 11.8 °C 1014.4 hPa SE 3.2 km/h 9.7 km/h 53 % 0 mm
22:53 21.7 °C 12 °C 1014.4 hPa SSW 1.6 km/h 9.7 km/h 54 % 0 mm
22:58 21.6 °C 11.9 °C 1014.4 hPa SSE 3.2 km/h 8 km/h 54 % 0 mm
23:03 21.4 °C 12 °C 1014.4 hPa SSE 1.6 km/h 8 km/h 55 % 0 mm
23:08 21.2 °C 12.1 °C 1014.4 hPa South 3.2 km/h 6.4 km/h 56 % 0 mm
23:13 21 °C 12.2 °C 1014.4 hPa SE 3.2 km/h 4.8 km/h 57 % 0 mm
23:18 20.9 °C 12.3 °C 1014.4 hPa SSE 4.8 km/h 4.8 km/h 58 % 0 mm
23:23 20.8 °C 12.2 °C 1014.4 hPa South 3.2 km/h 4.8 km/h 58 % 0 mm
23:28 20.7 °C 12.4 °C 1014.4 hPa South 3.2 km/h 4.8 km/h 59 % 0 mm
23:33 20.7 °C 12.4 °C 1014.4 hPa SSE 1.6 km/h 6.4 km/h 59 % 0 mm
23:38 20.7 °C 12.7 °C 1014.4 hPa SSE 3.2 km/h 6.4 km/h 60 % 0 mm
23:43 20.6 °C 12.6 °C 1014.4 hPa SE 1.6 km/h 6.4 km/h 60 % 0 mm
23:48 20.5 °C 12.7 °C 1014.4 hPa ESE 1.6 km/h 4.8 km/h 61 % 0 mm
23:53 20.3 °C 12.5 °C 1014.4 hPa Calm   4.8 km/h 61 % 0 mm
23:58 20.1 °C 12.6 °C 1014.4 hPa Calm   4.8 km/h 62 % 0 mm
Spring, Texas: Villages of Bridgestone
Compliments of Weather Underground - 2.75 mb

Script developed by  Jim McMurry - jmcmurry@mwt.net Adapted for the template by  Wim van der Kuil - Leuven-Template.eu

You find our weather info also at:

UK Metoffice

WeatherCloud

Weather Underground

Mid-South Weather Network

AWEKAS

Citizen Weather Observer Program (CWOP)

HAMweather, WeatherForYou, PWS Weather

Equipment we use:

Weather-station
Davis Vantage Vue

Weather-program
Meteohub

Weather-server
Debian 7.9 x86 (Guest)

Provider
DreamHost

Davis Vantage Vue

Meteohub

Debian 7.9 x86 (Guest)

DreamHost